Time;durP1;ratioP1;P1;durP2;ratioP2;P2;SDS_P1;SDS_P2;PMS_P1;PMS_P2;Temp;Humidity;BMP_temperature;BMP_pressure;BME280_temperature;BME280_humidity;BME280_pressure;Samples;Min_cycle;Max_cycle;Signal;HPM_P1;HPM_P2
2023/02/16 00:00:38;;;;;;;21.37;12.23;;;-1.80;99.90;-1.50;97779.00;;;;5055622;28;20451;-68
2023/02/16 00:03:27;;;;;;;19.63;9.77;;;-1.90;99.90;-1.30;97771.00;;;;5056494;28;20968;-70
2023/02/16 00:06:16;;;;;;;6.90;5.57;;;-1.80;99.90;-1.40;97778.00;;;;5056606;28;21028;-79
2023/02/16 00:09:05;;;;;;;18.93;10.93;;;-1.80;99.90;-1.30;97772.00;;;;5061492;28;20438;-74
2023/02/16 00:15:02;;;;;;;13.63;11.17;;;-1.70;99.90;-1.00;97781.00;;;;5059553;28;20517;-72
2023/02/16 00:17:50;;;;;;;19.60;9.70;;;-1.70;99.90;-1.10;97787.00;;;;5060045;28;21034;-69
2023/02/16 00:20:39;;;;;;;18.87;10.10;;;0.40;99.90;-0.90;97790.00;;;;5058100;28;20450;-70
2023/02/16 00:23:28;;;;;;;17.13;11.17;;;-1.60;99.90;-0.70;97795.00;;;;5060333;28;20469;-70
2023/02/16 00:26:19;;;;;;;14.97;8.90;;;-1.60;99.90;-0.60;97787.00;;;;5064247;28;20462;-69
2023/02/16 00:29:16;;;;;;;19.87;11.73;;;-1.40;99.90;-0.60;97786.00;;;;5061283;28;20438;-69
2023/02/16 00:32:06;;;;;;;15.93;9.97;;;-1.40;99.90;-0.40;97791.00;;;;5060002;28;20457;-69
2023/02/16 00:34:55;;;;;;;18.97;11.87;;;-1.30;99.90;-0.80;97780.00;;;;5062876;28;20513;-71
2023/02/16 00:37:44;;;;;;;15.60;10.10;;;0.70;99.90;-1.30;97772.00;;;;5060216;28;20446;-67
2023/02/16 00:40:33;;;;;;;14.87;8.47;;;0.80;99.90;-1.10;97782.00;;;;5063120;28;20448;-68
2023/02/16 00:43:27;;;;;;;12.23;8.87;;;0.90;99.90;-1.10;97785.00;;;;5060772;28;20469;-69
2023/02/16 00:46:17;;;;;;;15.30;8.57;;;-1.60;99.90;-1.40;97772.00;;;;5060020;28;20705;-68
2023/02/16 00:49:08;;;;;;;5.87;5.23;;;-1.70;99.90;-1.50;97773.00;;;;5062228;28;21122;-72
2023/02/16 00:51:57;;;;;;;14.83;9.33;;;-1.80;99.90;-1.00;97787.00;;;;5058620;28;20439;-71
2023/02/16 00:54:46;;;;;;;13.27;10.03;;;-1.80;99.90;-0.80;97774.00;;;;5065674;28;20446;-71
2023/02/16 00:57:39;;;;;;;11.40;7.93;;;-1.70;99.90;-0.90;97780.00;;;;5061387;28;20457;-72
2023/02/16 01:00:33;;;;;;;19.60;9.57;;;-1.60;99.90;-0.50;97778.00;;;;5060186;28;20439;-73
2023/02/16 01:03:26;;;;;;;11.27;7.43;;;-1.50;99.90;-1.30;97773.00;;;;5058698;28;20466;-78
2023/02/16 01:12:36;;;;;;;10.57;7.50;;;-1.80;99.90;-2.20;97754.00;;;;5063776;28;20472;-77
2023/02/16 01:15:26;;;;;;;10.60;7.00;;;-2.10;99.90;-1.70;97766.00;;;;5059807;28;20569;-75
2023/02/16 01:18:18;;;;;;;14.40;8.17;;;-1.60;99.90;-1.40;97762.00;;;;5058913;28;20810;-74
2023/02/16 01:21:08;;;;;;;9.53;6.63;;;-2.10;99.90;-1.10;97760.00;;;;5058582;28;21249;-75
2023/02/16 01:23:57;;;;;;;10.00;6.80;;;-2.00;99.90;-1.00;97769.00;;;;5058752;28;20462;-73
2023/02/16 01:26:49;;;;;;;15.33;7.73;;;-1.90;99.90;-0.80;97771.00;;;;5063477;28;20551;-73
2023/02/16 01:29:38;;;;;;;11.23;7.03;;;-1.40;99.90;-1.10;97766.00;;;;5060734;28;20450;-72
2023/02/16 01:32:27;;;;;;;6.53;5.90;;;0.50;99.90;-1.10;97767.00;;;;5057796;28;20454;-72
2023/02/16 01:35:16;;;;;;;10.10;7.03;;;-1.60;99.90;-1.00;97766.00;;;;5058714;28;20456;-69
2023/02/16 01:38:06;;;;;;;13.77;8.33;;;-1.60;99.90;-1.00;97766.00;;;;5058662;28;20439;-71
2023/02/16 01:41:22;;;;;;;12.27;8.10;;;-1.60;99.90;-1.30;97772.00;;;;5061714;28;20450;-74
2023/02/16 01:44:16;;;;;;;5.20;3.10;;;-1.70;99.90;-1.50;97760.00;;;;5061554;28;20458;-69
2023/02/16 01:47:15;;;;;;;11.00;7.63;;;-1.60;99.90;-1.50;97757.00;;;;5062163;28;20520;-70
2023/02/16 01:50:17;;;;;;;8.00;4.63;;;-1.80;99.90;-1.40;97765.00;;;;5058979;28;20442;-73
2023/02/16 01:53:19;;;;;;;10.07;6.53;;;-1.80;99.90;-1.40;97765.00;;;;5059366;28;20465;-70
2023/02/16 01:56:20;;;;;;;12.93;7.60;;;-1.80;99.90;-1.30;97766.00;;;;5061632;28;21293;-68
2023/02/16 01:59:18;;;;;;;10.40;7.40;;;-1.80;99.90;-1.30;97757.00;;;;5059929;28;20469;-71
2023/02/16 02:02:15;;;;;;;12.73;6.80;;;-1.80;99.90;-1.40;97756.00;;;;5058291;28;20434;-69
2023/02/16 02:05:35;;;;;;;8.43;4.70;;;-1.80;99.90;-2.00;97753.00;;;;5058577;28;20448;-75
2023/02/16 02:08:37;;;;;;;7.97;5.97;;;-2.00;99.90;-1.50;97748.00;;;;5059270;28;20489;-71
2023/02/16 02:11:32;;;;;;;7.10;5.50;;;-2.10;99.90;-1.50;97750.00;;;;5059644;28;20435;-68
2023/02/16 02:14:27;;;;;;;25.67;8.07;;;-2.00;99.90;-1.50;97743.00;;;;5060188;28;21040;-68
2023/02/16 02:17:20;;;;;;;7.33;4.17;;;-1.90;99.90;-1.60;97735.00;;;;5054876;28;20446;-69
2023/02/16 02:20:17;;;;;;;7.37;6.53;;;-2.00;99.90;-1.80;97743.00;;;;5060579;28;20473;-76
2023/02/16 02:23:48;;;;;;;10.10;6.73;;;-2.00;99.90;-1.60;97738.00;;;;5057944;28;20461;-69
2023/02/16 02:26:59;;;;;;;9.93;6.63;;;-2.00;99.90;-1.40;97734.00;;;;5060565;28;20974;-69
2023/02/16 02:30:15;;;;;;;6.87;5.83;;;0.10;99.90;-1.10;97738.00;;;;5061092;28;20531;-73
2023/02/16 02:33:26;;;;;;;13.00;7.13;;;-1.90;99.90;-1.70;97730.00;;;;5058240;28;20981;-66
2023/02/16 02:36:27;;;;;;;6.30;4.80;;;0.30;99.90;-1.70;97724.00;;;;5057160;28;20481;-71
2023/02/16 02:39:28;;;;;;;4.83;4.40;;;-1.90;99.90;-1.10;97729.00;;;;5058097;28;21275;-68
2023/02/16 02:42:28;;;;;;;10.67;7.63;;;0.40;99.90;-1.20;97741.00;;;;5059235;28;20470;-72
2023/02/16 02:45:23;;;;;;;9.73;4.43;;;-1.70;99.90;-1.00;97726.00;;;;5058509;28;20431;-69
2023/02/16 02:48:12;;;;;;;11.63;6.23;;;-0.30;99.90;-1.00;97741.00;;;;5058527;28;20933;-70
2023/02/16 03:00:43;;;;;;;10.63;6.43;;;-1.60;99.90;-1.50;97728.00;;;;5058349;28;20442;-70
2023/02/16 03:03:36;;;;;;;12.17;7.13;;;0.50;99.90;-1.60;97723.00;;;;5056972;28;20834;-70
2023/02/16 03:06:28;;;;;;;10.07;5.30;;;-1.90;99.90;-1.50;97729.00;;;;5058299;28;20450;-69
2023/02/16 03:09:17;;;;;;;7.03;4.93;;;-2.00;99.90;-1.40;97728.00;;;;5055675;28;20437;-75
2023/02/16 03:15:17;;;;;;;9.23;5.37;;;-1.90;99.90;-1.20;97723.00;;;;5060360;28;20434;-69
2023/02/16 03:30:50;;;;;;;4.67;4.27;;;-2.30;99.90;-2.50;97715.00;;;;5060791;28;20439;-68
2023/02/16 03:33:39;;;;;;;6.43;5.23;;;-2.50;99.90;-2.20;97715.00;;;;5055196;28;20463;-71
2023/02/16 03:36:34;;;;;;;4.87;3.97;;;-2.30;99.90;-2.10;97720.00;;;;5056350;28;20808;-72
2023/02/16 03:39:22;;;;;;;6.30;4.90;;;-2.50;99.90;-2.00;97720.00;;;;5056873;28;20443;-70
2023/02/16 03:42:12;;;;;;;16.10;4.97;;;-2.50;99.90;-2.10;97708.00;;;;5061247;28;20454;-72
2023/02/16 03:45:01;;;;;;;7.93;5.90;;;-2.50;99.90;-1.70;97714.00;;;;5065728;28;20443;-70
2023/02/16 03:47:51;;;;;;;2.57;2.37;;;-2.40;99.90;-2.30;97717.00;;;;5061459;28;20473;-75
2023/02/16 03:50:40;;;;;;;5.23;4.40;;;-2.50;99.90;-2.30;97712.00;;;;5065751;28;20446;-75
2023/02/16 03:53:29;;;;;;;8.57;6.00;;;-0.60;99.90;-2.40;97701.00;;;;5061632;28;20470;-68
2023/02/16 03:56:18;;;;;;;5.60;4.33;;;-2.60;99.90;-1.90;97719.00;;;;5065157;28;20434;-72
2023/02/16 03:59:06;;;;;;;6.63;3.90;;;-2.60;99.90;-1.60;97715.00;;;;5063198;28;20438;-73
2023/02/16 04:01:55;;;;;;;8.10;5.27;;;-2.50;99.90;-1.30;97725.00;;;;5063477;28;20438;-71
2023/02/16 04:04:45;;;;;;;7.17;5.53;;;-2.30;99.90;-1.30;97719.00;;;;5059918;28;20458;-71
2023/02/16 04:07:34;;;;;;;5.40;4.47;;;-2.20;99.90;-1.90;97718.00;;;;5062173;28;20471;-70
2023/02/16 04:10:24;;;;;;;8.47;4.63;;;-0.90;99.90;-2.20;97709.00;;;;5060085;28;20939;-68
2023/02/16 04:13:11;;;;;;;7.90;5.27;;;-2.30;99.90;-2.40;97700.00;;;;5059802;28;20478;-69
2023/02/16 04:16:00;;;;;;;7.53;4.17;;;-2.20;99.90;-2.30;97708.00;;;;5063576;28;20811;-70
2023/02/16 04:18:49;;;;;;;7.27;3.03;;;-2.60;99.90;-2.40;97707.00;;;;5063762;28;20443;-74
2023/02/16 04:21:39;;;;;;;3.87;3.57;;;-2.60;99.90;-2.70;97702.00;;;;5062157;28;20450;-76
2023/02/16 04:24:28;;;;;;;7.10;5.50;;;-2.80;99.90;-2.40;97699.00;;;;5060297;28;20839;-67
2023/02/16 04:27:17;;;;;;;4.67;4.17;;;-2.70;99.90;-1.90;97695.00;;;;5063776;28;20438;-69
2023/02/16 04:30:09;;;;;;;3.90;3.10;;;-2.60;99.90;-2.30;97690.00;;;;5062893;28;20442;-70
2023/02/16 04:32:58;;;;;;;6.17;3.13;;;-2.60;99.90;-2.00;97683.00;;;;5063019;28;20457;-69
2023/02/16 04:35:47;;;;;;;7.83;3.90;;;-2.50;99.90;-1.60;97689.00;;;;5060894;28;20678;-68
2023/02/16 04:38:37;;;;;;;0.70;0.70;;;-2.40;99.90;-2.60;97676.00;;;;5058024;28;20439;-75
2023/02/16 04:41:26;;;;;;;5.47;4.00;;;-1.90;99.90;-2.60;97674.00;;;;5062299;28;20447;-70
2023/02/16 04:44:15;;;;;;;2.13;1.90;;;-2.70;99.90;-2.90;97665.00;;;;5061627;28;20481;-75
2023/02/16 04:47:04;;;;;;;5.77;3.63;;;-2.80;99.90;-2.90;97657.00;;;;5062704;28;20439;-68
2023/02/16 04:49:53;;;;;;;3.77;2.67;;;-2.90;99.90;-2.70;97662.00;;;;5061991;28;20466;-68
2023/02/16 04:52:42;;;;;;;10.97;4.33;;;-2.90;99.90;-2.80;97657.00;;;;5060050;28;20458;-70
2023/02/16 04:55:32;;;;;;;15.03;4.77;;;-2.90;99.90;-2.90;97658.00;;;;5057564;28;20442;-70
2023/02/16 04:58:21;;;;;;;0.60;0.60;;;-3.00;99.90;-3.00;97659.00;;;;5061619;28;20449;-75
2023/02/16 05:01:18;;;;;;;2.17;2.07;;;-3.00;99.90;-3.10;97658.00;;;;5062271;28;20439;-70
2023/02/16 05:04:08;;;;;;;2.20;2.03;;;-3.10;99.90;-3.10;97664.00;;;;5061187;28;20458;-75
2023/02/16 05:06:57;;;;;;;4.93;3.37;;;-3.00;99.90;-3.00;97662.00;;;;5061801;28;20987;-76
2023/02/16 05:09:45;;;;;;;5.00;2.93;;;-2.90;99.90;-2.70;97661.00;;;;5057557;28;20477;-68
2023/02/16 05:15:43;;;;;;;2.13;1.83;;;-2.90;99.90;-2.10;97668.00;;;;5062095;28;20957;-69
2023/02/16 05:18:32;;;;;;;1.30;1.30;;;-2.70;99.90;-2.30;97654.00;;;;5060675;28;20483;-66
2023/02/16 05:21:34;;;;;;;2.97;2.23;;;-2.40;99.90;-3.10;97670.00;;;;5055353;28;21023;-73
2023/02/16 05:24:22;;;;;;;3.43;2.37;;;-2.80;99.90;-3.10;97657.00;;;;5057329;28;20456;-74
2023/02/16 05:27:14;;;;;;;2.87;2.50;;;-3.00;99.90;-2.90;97660.00;;;;5062107;28;20528;-67
2023/02/16 05:30:05;;;;;;;4.10;2.23;;;-3.00;99.90;-2.50;97659.00;;;;5060577;28;20474;-76
2023/02/16 05:32:54;;;;;;;3.87;2.53;;;-2.80;99.90;-1.90;97666.00;;;;5062179;28;20547;-71
2023/02/16 05:35:43;;;;;;;2.27;1.93;;;-2.70;99.90;-2.00;97662.00;;;;5057750;28;20431;-67
2023/02/16 05:38:32;;;;;;;3.43;2.97;;;-2.50;99.90;-2.70;97653.00;;;;5057343;28;20450;-70
2023/02/16 05:41:24;;;;;;;1.83;1.73;;;-2.30;99.90;-3.00;97666.00;;;;5059615;28;20952;-70
2023/02/16 05:44:13;;;;;;;5.80;4.20;;;-2.70;99.90;-3.20;97645.00;;;;5056976;28;20458;-70
2023/02/16 05:47:04;;;;;;;3.47;2.40;;;-2.90;99.90;-3.30;97665.00;;;;5060030;28;20439;-68
2023/02/16 05:49:52;;;;;;;1.37;1.37;;;-3.00;99.90;-3.20;97650.00;;;;5059374;28;20481;-76
2023/02/16 05:52:41;;;;;;;2.93;2.30;;;-2.80;99.90;-2.90;97656.00;;;;5059453;28;20458;-74
2023/02/16 05:55:30;;;;;;;3.80;2.87;;;-2.80;99.90;-2.10;97669.00;;;;5059097;28;20803;-69
2023/02/16 05:58:19;;;;;;;6.07;3.87;;;-2.90;99.90;-2.30;97674.00;;;;5059365;28;20434;-72
2023/02/16 06:01:08;;;;;;;5.33;4.60;;;-0.20;99.90;-2.10;97678.00;;;;5059759;28;20449;-69
2023/02/16 06:03:58;;;;;;;2.50;2.30;;;-2.60;99.90;-2.40;97666.00;;;;5062168;28;20466;-68
2023/02/16 06:06:47;;;;;;;3.00;2.17;;;-2.60;99.90;-2.80;97653.00;;;;5057256;28;20916;-66
2023/02/16 06:09:36;;;;;;;1.77;1.67;;;-2.70;99.90;-2.90;97670.00;;;;5059123;28;20853;-74
2023/02/16 06:12:25;;;;;;;2.00;1.90;;;-2.80;99.90;-3.00;97674.00;;;;5058267;28;20508;-76
2023/02/16 06:15:14;;;;;;;3.60;3.33;;;-2.90;99.90;-2.80;97679.00;;;;5059692;28;20431;-68
2023/02/16 06:18:02;;;;;;;6.57;4.37;;;-2.90;99.90;-2.80;97684.00;;;;5061344;28;20449;-73
2023/02/16 06:20:53;;;;;;;0.80;0.80;;;-2.90;99.90;-2.70;97674.00;;;;5056566;28;20443;-75
2023/02/16 06:23:41;;;;;;;4.70;3.03;;;-3.00;99.90;-2.50;97685.00;;;;5057916;28;20465;-68
2023/02/16 06:26:31;;;;;;;3.33;2.90;;;-2.90;99.90;-2.10;97693.00;;;;5060544;28;20450;-76
2023/02/16 06:29:19;;;;;;;3.47;2.87;;;-2.50;99.90;-1.80;97691.00;;;;5059206;28;20465;-71
2023/02/16 06:32:08;;;;;;;2.23;2.13;;;-2.70;99.90;-1.80;97689.00;;;;5060129;28;20992;-70
2023/02/16 06:34:57;;;;;;;3.70;1.57;;;-2.50;99.90;-2.00;97685.00;;;;5061105;28;20454;-77
2023/02/16 06:37:47;;;;;;;3.30;3.00;;;-1.50;99.90;-2.10;97703.00;;;;5056119;28;20442;-68
2023/02/16 06:40:36;;;;;;;3.97;3.47;;;-2.30;99.90;-2.20;97688.00;;;;5059788;28;21007;-69
2023/02/16 06:43:25;;;;;;;1.53;1.43;;;0.10;99.90;-2.20;97694.00;;;;5057569;28;20463;-69
2023/02/16 06:46:13;;;;;;;2.33;2.13;;;-1.80;99.90;-2.80;97689.00;;;;5060583;28;20442;-67
2023/02/16 06:49:02;;;;;;;1.53;1.43;;;-2.40;99.90;-2.80;97683.00;;;;5060883;28;20474;-72
2023/02/16 06:51:51;;;;;;;2.53;2.33;;;-2.50;99.90;-2.70;97688.00;;;;5057082;28;20459;-72
2023/02/16 06:54:41;;;;;;;2.07;1.47;;;-2.60;99.90;-2.30;97690.00;;;;5061498;28;20839;-72
2023/02/16 06:57:30;;;;;;;2.67;2.43;;;-2.50;99.90;-2.30;97696.00;;;;5057968;28;20474;-69
2023/02/16 07:00:20;;;;;;;2.00;1.80;;;-2.40;99.90;-1.90;97699.00;;;;5061057;28;20442;-78
2023/02/16 07:03:08;;;;;;;2.83;2.60;;;-2.30;99.90;-2.10;97700.00;;;;5060709;28;20555;-76
2023/02/16 07:05:57;;;;;;;2.90;2.70;;;-2.20;99.90;-2.30;97688.00;;;;5061262;28;20439;-72
2023/02/16 07:08:46;;;;;;;3.40;2.10;;;-4.60;99.90;-1.70;97702.00;;;;5055521;28;20480;-76
2023/02/16 07:11:37;;;;;;;4.03;2.97;;;-1.70;99.90;-1.30;97710.00;;;;5056532;28;20451;-70
2023/02/16 07:14:25;;;;;;;2.77;2.57;;;-1.90;99.90;-1.40;97713.00;;;;5057265;28;20466;-78
2023/02/16 07:17:14;;;;;;;4.13;3.53;;;-0.50;99.90;-1.20;97705.00;;;;5055052;28;20446;-76
2023/02/16 07:20:04;;;;;;;2.57;2.20;;;-1.70;99.90;-1.20;97697.00;;;;5058341;28;20446;-76
2023/02/16 07:22:53;;;;;;;2.93;2.73;;;0.30;99.90;-1.40;97709.00;;;;5052867;28;20966;-73
2023/02/16 07:25:42;;;;;;;1.63;1.43;;;-1.70;99.90;-1.60;97705.00;;;;5058375;28;20442;-68
2023/02/16 07:28:32;;;;;;;2.70;2.47;;;-1.70;99.90;-1.30;97690.00;;;;5053704;28;20449;-68
2023/02/16 07:31:25;;;;;;;0.90;0.90;;;-1.70;99.90;-1.30;97694.00;;;;5060233;28;20454;-75
2023/02/16 07:34:13;;;;;;;2.17;1.87;;;0.80;99.90;-1.10;97700.00;;;;5059029;28;20459;-75
2023/02/16 07:37:02;;;;;;;3.23;2.77;;;-1.50;99.90;-1.00;97706.00;;;;5057910;28;20438;-77
2023/02/16 07:39:51;;;;;;;3.00;2.43;;;0.70;99.90;-0.70;97702.00;;;;5057665;28;20458;-69
2023/02/16 07:42:40;;;;;;;0.60;0.60;;;-1.30;99.90;-0.60;97699.00;;;;5057601;28;20455;-77
2023/02/16 07:45:31;;;;;;;2.17;1.90;;;-0.60;99.90;-0.60;97690.00;;;;5060091;28;20453;-73
2023/02/16 07:48:20;;;;;;;1.83;1.73;;;1.30;99.90;-0.30;97705.00;;;;5058898;28;20442;-68
2023/02/16 07:51:09;;;;;;;2.43;2.27;;;1.00;99.90;0.10;97709.00;;;;5059697;28;21004;-69
2023/02/16 07:53:59;;;;;;;3.47;3.23;;;0.60;99.90;0.20;97702.00;;;;5059001;28;20985;-68
2023/02/16 07:56:48;;;;;;;1.10;1.00;;;-0.50;99.90;-0.10;97717.00;;;;5058384;28;20953;-77
2023/02/16 07:59:37;;;;;;;2.27;2.03;;;-0.40;99.90;0.00;97708.00;;;;5057003;28;20449;-66
2023/02/16 08:02:27;;;;;;;7.53;3.67;;;1.90;99.90;0.10;97706.00;;;;5059063;28;20469;-75
2023/02/16 08:05:16;;;;;;;2.20;2.00;;;0.40;99.90;0.60;97716.00;;;;5059277;28;20945;-77
2023/02/16 08:08:05;;;;;;;1.97;1.83;;;-0.20;99.90;1.00;97724.00;;;;5058449;28;20446;-76
2023/02/16 08:10:54;;;;;;;1.73;1.63;;;1.60;99.90;1.00;97720.00;;;;5057539;28;20473;-69
2023/02/16 08:13:43;;;;;;;3.73;2.87;;;1.00;99.90;1.20;97723.00;;;;5056996;28;20458;-67
2023/02/16 08:16:32;;;;;;;4.77;3.70;;;1.20;99.90;1.60;97725.00;;;;5057662;28;20971;-79
2023/02/16 08:19:23;;;;;;;4.43;3.90;;;1.60;99.90;1.70;97731.00;;;;5060132;28;20439;-77
2023/02/16 08:22:12;;;;;;;4.47;3.60;;;0.80;99.90;1.90;97725.00;;;;5059883;28;20441;-70
2023/02/16 08:25:00;;;;;;;3.30;2.20;;;-0.70;99.90;1.80;97732.00;;;;5054076;28;20462;-75
2023/02/16 08:27:49;;;;;;;3.37;2.97;;;1.10;99.90;2.00;97724.00;;;;5058290;28;20438;-68
2023/02/16 08:30:38;;;;;;;5.43;3.03;;;1.20;99.90;2.50;97736.00;;;;5061998;28;20559;-70
2023/02/16 08:33:27;;;;;;;8.80;4.33;;;1.40;99.90;2.70;97729.00;;;;5063956;28;20463;-68
2023/02/16 08:36:22;;;;;;;11.67;3.80;;;1.90;99.90;3.10;97741.00;;;;5063698;28;20568;-69
2023/02/16 08:39:16;;;;;;;5.20;3.73;;;1.80;99.90;3.60;97746.00;;;;5058595;28;20454;-69
2023/02/16 08:42:05;;;;;;;8.70;3.27;;;2.10;99.90;3.50;97748.00;;;;5061611;28;20441;-71
2023/02/16 08:44:54;;;;;;;9.93;3.53;;;2.30;99.90;3.90;97745.00;;;;5061661;28;20497;-70
2023/02/16 08:47:43;;;;;;;7.33;4.13;;;2.60;99.90;3.90;97751.00;;;;5062385;28;20446;-71
2023/02/16 08:50:32;;;;;;;5.27;4.10;;;2.80;99.90;4.30;97748.00;;;;5064243;28;20482;-71
2023/02/16 08:53:24;;;;;;;7.20;4.13;;;3.00;99.90;4.60;97754.00;;;;5060201;28;20450;-70
2023/02/16 08:56:15;;;;;;;7.53;3.90;;;5.20;99.90;5.20;97739.00;;;;5061801;28;20443;-70
2023/02/16 08:59:04;;;;;;;4.87;3.63;;;3.50;99.90;5.50;97745.00;;;;5059303;28;21171;-70
2023/02/16 09:01:53;;;;;;;7.83;4.23;;;3.80;99.90;5.90;97738.00;;;;5060109;28;20537;-69
2023/02/16 09:04:41;;;;;;;8.00;2.93;;;4.20;99.90;6.10;97746.00;;;;5063398;28;20207;-69
2023/02/16 09:07:33;;;;;;;5.53;3.63;;;4.50;99.90;6.60;97750.00;;;;5062464;28;20208;-68
2023/02/16 09:10:23;;;;;;;7.33;3.50;;;4.90;99.90;6.80;97747.00;;;;5061008;28;20734;-68
2023/02/16 09:13:14;;;;;;;9.67;3.83;;;5.10;99.90;7.00;97751.00;;;;5058276;28;20621;-67
2023/02/16 09:16:05;;;;;;;11.83;4.63;;;5.40;99.90;7.10;97747.00;;;;5062931;28;20241;-67
2023/02/16 09:18:54;;;;;;;6.93;2.33;;;5.70;99.90;7.20;97754.00;;;;5061671;28;20207;-69
2023/02/16 09:21:44;;;;;;;5.70;3.70;;;5.90;99.90;7.10;97750.00;;;;5063120;28;20223;-71
2023/02/16 09:24:33;;;;;;;7.53;3.23;;;6.00;99.90;8.00;97756.00;;;;5056494;28;21568;-69
2023/02/16 09:27:23;;;;;;;4.77;3.63;;;6.20;99.90;7.90;97755.00;;;;5058004;28;20196;-68
2023/02/16 09:30:13;;;;;;;6.20;3.80;;;6.50;99.90;7.70;97752.00;;;;5058231;28;20224;-67
2023/02/16 09:33:02;;;;;;;5.27;3.30;;;6.60;99.90;7.70;97758.00;;;;5060437;28;20230;-67
2023/02/16 09:35:51;;;;;;;6.70;3.97;;;6.60;99.90;7.80;97744.00;;;;5063898;28;20212;-69
2023/02/16 09:38:41;;;;;;;7.80;4.07;;;6.70;99.90;8.20;97753.00;;;;5059589;28;20215;-70
2023/02/16 09:41:53;;;;;;;6.67;3.17;;;6.90;99.90;8.30;97748.00;;;;5059474;28;20211;-68
2023/02/16 09:44:51;;;;;;;5.07;3.17;;;7.00;99.90;8.60;97744.00;;;;5056818;28;20211;-67
2023/02/16 09:47:46;;;;;;;5.97;4.30;;;7.20;99.90;9.00;97752.00;;;;5060229;28;20204;-69
2023/02/16 09:50:35;;;;;;;2.77;2.47;;;7.40;99.90;9.10;97747.00;;;;5062898;28;20232;-68
2023/02/16 09:53:44;;;;;;;10.90;3.50;;;7.50;99.90;9.20;97749.00;;;;5059619;28;20280;-68
2023/02/16 09:56:38;;;;;;;7.00;3.93;;;7.70;99.30;9.90;97754.00;;;;5058850;28;21128;-70
2023/02/16 09:59:44;;;;;;;7.23;3.20;;;8.00;99.60;9.80;97765.00;;;;5060164;28;20203;-69
2023/02/16 10:02:46;;;;;;;3.83;2.47;;;8.20;97.50;10.00;97765.00;;;;5061640;28;20228;-68
2023/02/16 10:05:45;;;;;;;5.13;3.23;;;8.40;96.80;10.30;97770.00;;;;5061152;28;20203;-68
2023/02/16 10:08:40;;;;;;;5.47;2.40;;;8.50;96.10;10.30;97777.00;;;;5059720;28;20219;-68
2023/02/16 10:11:44;;;;;;;5.27;3.00;;;8.70;94.70;10.80;97757.00;;;;5059636;28;20223;-68
2023/02/16 10:14:41;;;;;;;6.00;3.00;;;8.90;94.40;11.20;97751.00;;;;5059726;28;20218;-66
2023/02/16 10:17:38;;;;;;;7.20;2.53;;;9.10;94.20;11.40;97753.00;;;;5061468;28;20223;-67
2023/02/16 10:20:33;;;;;;;4.33;2.77;;;9.40;93.40;11.60;97748.00;;;;5060534;28;20199;-69
2023/02/16 10:23:38;;;;;;;5.13;2.73;;;9.60;92.00;11.80;97745.00;;;;5060187;28;20612;-71
2023/02/16 10:26:34;;;;;;;8.73;2.53;;;9.80;91.90;12.30;97746.00;;;;5059665;28;20204;-69
2023/02/16 10:29:24;;;;;;;4.67;2.33;;;10.10;91.10;12.40;97744.00;;;;5057058;28;20204;-67
2023/02/16 10:32:22;;;;;;;4.93;2.60;;;10.40;90.20;12.60;97734.00;;;;5059740;28;20231;-74
2023/02/16 10:35:16;;;;;;;11.43;3.07;;;10.60;88.10;12.90;97739.00;;;;5060855;28;20223;-69
2023/02/16 10:38:12;;;;;;;2.97;2.63;;;10.80;85.90;13.00;97740.00;;;;5060250;28;20196;-68
2023/02/16 10:41:09;;;;;;;3.63;2.83;;;11.00;83.70;13.40;97735.00;;;;5059715;28;20705;-68
2023/02/16 10:44:06;;;;;;;7.60;2.47;;;11.30;83.70;13.70;97734.00;;;;5062223;28;20223;-66
2023/02/16 10:47:00;;;;;;;3.20;2.50;;;11.50;82.80;14.00;97730.00;;;;5060232;28;20223;-68
2023/02/16 10:49:50;;;;;;;5.53;2.53;;;12.00;79.20;14.70;97725.00;;;;5058573;28;20196;-69
2023/02/16 10:52:42;;;;;;;7.23;2.80;;;12.60;77.20;14.80;97722.00;;;;5060724;28;20223;-71
2023/02/16 10:55:31;;;;;;;11.37;3.03;;;13.10;74.80;15.40;97728.00;;;;5056601;28;20233;-69
2023/02/16 10:58:25;;;;;;;4.60;2.23;;;13.70;73.70;15.00;97726.00;;;;5057261;28;20203;-65
2023/02/16 11:01:19;;;;;;;4.60;2.77;;;14.20;69.40;15.80;97731.00;;;;5060866;28;20694;-68
2023/02/16 11:04:09;;;;;;;3.67;2.33;;;14.50;70.00;16.30;97726.00;;;;5060110;28;20714;-69
2023/02/16 11:07:05;;;;;;;3.00;2.30;;;14.60;68.10;16.60;97721.00;;;;5056985;28;20204;-68
2023/02/16 11:09:57;;;;;;;6.10;2.60;;;14.80;66.90;17.10;97723.00;;;;5060030;28;20211;-68
2023/02/16 11:12:46;;;;;;;6.57;3.10;;;15.20;65.30;17.20;97726.00;;;;5057566;28;20219;-67
2023/02/16 11:15:39;;;;;;;4.90;1.97;;;15.80;64.10;17.80;97722.00;;;;5059603;28;20209;-67
2023/02/16 11:18:38;;;;;;;3.47;2.30;;;15.80;65.10;17.50;97725.00;;;;5058636;28;20290;-66
2023/02/16 11:21:47;;;;;;;5.00;2.93;;;16.10;60.30;18.30;97721.00;;;;5059970;28;20208;-67
2023/02/16 11:24:37;;;;;;;8.90;2.50;;;16.40;61.50;16.90;97721.00;;;;5060399;28;20204;-68
2023/02/16 11:27:28;;;;;;;4.23;2.50;;;16.30;57.60;18.40;97716.00;;;;5059863;28;20215;-66
2023/02/16 11:30:22;;;;;;;4.70;2.83;;;16.50;59.80;18.70;97712.00;;;;5061264;28;20212;-67
2023/02/16 11:33:23;;;;;;;3.63;2.33;;;16.80;58.30;18.60;97715.00;;;;5058385;28;20838;-68
2023/02/16 11:36:29;;;;;;;2.97;1.93;;;17.00;56.50;19.00;97699.00;;;;5060127;28;20876;-68
2023/02/16 11:39:23;;;;;;;5.77;2.33;;;17.10;56.70;19.50;97702.00;;;;5061196;28;20203;-68
2023/02/16 11:42:26;;;;;;;4.80;2.20;;;17.30;56.80;19.80;97709.00;;;;5055931;28;20580;-67
2023/02/16 11:45:28;;;;;;;4.07;2.17;;;17.60;56.70;19.30;97695.00;;;;5055774;28;20676;-69
2023/02/16 11:48:28;;;;;;;2.97;2.10;;;17.70;53.90;19.50;97689.00;;;;5057937;28;20203;-69
2023/02/16 11:51:33;;;;;;;4.67;2.43;;;18.20;54.60;19.30;97682.00;;;;5059372;28;20215;-66
2023/02/16 11:54:22;;;;;;;5.13;2.10;;;17.80;52.90;19.70;97687.00;;;;5059727;28;20219;-68
2023/02/16 11:57:13;;;;;;;2.30;1.60;;;17.80;53.00;19.70;97687.00;;;;5058477;28;20211;-67
2023/02/16 12:00:16;;;;;;;3.63;2.03;;;18.00;54.00;20.50;97682.00;;;;5056755;28;20413;-68
2023/02/16 12:03:25;;;;;;;4.53;1.80;;;18.10;53.40;20.40;97673.00;;;;5059049;28;20247;-68
2023/02/16 12:06:32;;;;;;;11.67;4.43;;;18.50;51.80;20.90;97658.00;;;;5063289;28;20672;-68
2023/02/16 12:09:31;;;;;;;5.30;3.03;;;18.70;51.40;21.30;97655.00;;;;5064830;28;20200;-68
2023/02/16 12:12:33;;;;;;;6.83;2.60;;;19.30;50.40;22.10;97652.00;;;;5060699;28;20236;-67
2023/02/16 12:15:30;;;;;;;4.03;1.93;;;19.40;50.40;22.00;97648.00;;;;5060045;28;20620;-69
2023/02/16 12:18:36;;;;;;;5.27;1.87;;;19.70;49.30;23.00;97651.00;;;;5059678;28;20729;-69
2023/02/16 12:21:37;;;;;;;4.43;2.00;;;20.10;50.10;22.60;97655.00;;;;5063641;28;20454;-69
2023/02/16 12:24:43;;;;;;;7.00;1.97;;;20.50;48.50;22.90;97649.00;;;;5063331;28;20230;-69
2023/02/16 12:27:40;;;;;;;5.13;2.22;;;20.70;48.40;23.70;97640.00;;;;5057127;28;20413;-69
2023/02/16 12:30:44;;;;;;;16.93;5.53;;;21.00;48.30;23.50;97634.00;;;;5062082;28;20201;-68
2023/02/16 12:33:49;;;;;;;6.27;3.67;;;21.40;47.10;24.50;97631.00;;;;5058604;28;20603;-69
2023/02/16 12:36:53;;;;;;;3.27;2.80;;;21.70;47.10;24.20;97634.00;;;;5062866;28;20612;-69
2023/02/16 12:39:55;;;;;;;3.73;2.40;;;21.90;45.10;24.40;97623.00;;;;5061536;28;20212;-68
2023/02/16 12:42:59;;;;;;;6.83;2.47;;;22.10;43.70;24.40;97624.00;;;;5057871;28;20232;-68
2023/02/16 12:45:49;;;;;;;4.77;3.27;;;22.20;43.40;23.60;97643.00;;;;5060303;28;20206;-66
2023/02/16 12:48:46;;;;;;;4.37;2.63;;;22.20;42.70;22.40;97621.00;;;;5060064;28;20257;-68
2023/02/16 12:51:39;;;;;;;3.43;2.40;;;21.70;42.10;23.30;97627.00;;;;5064149;28;20220;-66
2023/02/16 12:54:36;;;;;;;5.67;3.30;;;21.40;43.60;23.30;97625.00;;;;5063174;28;20348;-67
2023/02/16 12:57:27;;;;;;;4.07;2.93;;;21.20;43.30;23.40;97635.00;;;;5057272;28;20665;-65
2023/02/16 13:00:26;;;;;;;5.20;3.83;;;21.30;44.50;23.10;97614.00;;;;5058693;28;20229;-67
2023/02/16 13:03:29;;;;;;;6.30;3.80;;;21.20;45.10;23.20;97620.00;;;;5061940;28;20229;-68
2023/02/16 13:06:28;;;;;;;10.20;4.33;;;21.10;45.60;24.30;97596.00;;;;5065153;28;20206;-67
2023/02/16 13:09:32;;;;;;;7.90;4.43;;;21.50;46.50;25.00;97607.00;;;;5064353;28;20214;-65
2023/02/16 13:12:31;;;;;;;7.47;4.73;;;22.10;46.20;25.40;97600.00;;;;5060596;28;20221;-67
2023/02/16 13:15:20;;;;;;;;;;;;;26.20;97600.00;;;;5057208;28;20374;-67
2023/02/16 13:18:12;;;;;;;;;;;;;26.20;97598.00;;;;5060376;28;19921;-68
2023/02/16 13:21:02;;;;;;;;;;;;;26.30;97595.00;;;;5063552;28;19966;-67
2023/02/16 13:23:55;;;;;;;;;;;;;26.80;97596.00;;;;5062328;28;19927;-67
2023/02/16 13:26:52;;;;;;;6.90;4.55;;;;;27.10;97584.00;;;;5061115;28;20301;-67
2023/02/16 13:30:00;;;;;;;9.73;5.03;;;;;27.20;97584.00;;;;5057573;28;20207;-68